createdAt,value
2023-05-14T00:00:25.374Z,100.00
2023-05-14T00:02:53.437Z,100.00
2023-05-14T00:05:22.727Z,100.00
2023-05-14T00:07:50.669Z,100.00
2023-05-14T00:10:20.474Z,100.00
2023-05-14T00:12:48.449Z,100.00
2023-05-14T00:15:16.258Z,100.00
2023-05-14T00:17:44.164Z,100.00
2023-05-14T00:20:13.063Z,100.00
2023-05-14T00:22:42.584Z,100.00
2023-05-14T00:25:10.691Z,100.00
2023-05-14T00:27:38.573Z,100.00
2023-05-14T00:30:07.832Z,100.00
2023-05-14T00:32:35.798Z,100.00
2023-05-14T00:35:04.438Z,100.00
2023-05-14T00:37:32.429Z,100.00
2023-05-14T00:40:01.560Z,100.00
2023-05-14T00:42:29.419Z,100.00
2023-05-14T00:44:57.153Z,100.00
2023-05-14T00:47:25.157Z,100.00
2023-05-14T00:49:53.064Z,100.00
2023-05-14T00:52:22.873Z,100.00
2023-05-14T00:54:50.993Z,100.00
2023-05-14T00:57:20.261Z,100.00
2023-05-14T00:59:48.263Z,100.00
2023-05-14T01:02:17.452Z,100.00
2023-05-14T01:04:45.224Z,100.00
2023-05-14T01:07:21.837Z,100.00
2023-05-14T01:09:54.628Z,100.00
2023-05-14T01:12:31.077Z,100.00
2023-05-14T01:15:07.569Z,100.00
2023-05-14T01:17:40.191Z,100.00
2023-05-14T01:20:09.638Z,100.00
2023-05-14T01:22:38.759Z,100.00
2023-05-14T01:25:08.209Z,100.00
2023-05-14T01:27:39.741Z,100.00
2023-05-14T01:30:14.808Z,100.00
2023-05-14T01:32:45.831Z,100.00
2023-05-14T01:35:14.096Z,100.00
2023-05-14T01:37:45.156Z,100.00
2023-05-14T01:40:14.068Z,100.00
2023-05-14T01:42:42.483Z,100.00
2023-05-14T01:45:11.484Z,100.00
2023-05-14T01:47:39.429Z,100.00
2023-05-14T01:50:08.124Z,100.00
2023-05-14T01:52:35.926Z,100.00
2023-05-14T01:55:06.188Z,100.00
2023-05-14T01:57:33.882Z,100.00
2023-05-14T02:00:01.752Z,100.00
2023-05-14T02:02:29.598Z,100.00
2023-05-14T02:04:57.418Z,100.00
2023-05-14T02:07:25.192Z,100.00
2023-05-14T02:09:52.912Z,100.00
2023-05-14T02:12:22.423Z,100.00
2023-05-14T02:14:50.371Z,100.00
2023-05-14T02:17:19.585Z,100.00
2023-05-14T02:19:47.495Z,100.00
2023-05-14T02:22:15.368Z,100.00
2023-05-14T02:24:43.197Z,100.00
2023-05-14T02:27:12.875Z,100.00
2023-05-14T02:29:42.060Z,100.00
2023-05-14T02:32:10.102Z,100.00
2023-05-14T02:34:38.676Z,100.00
2023-05-14T02:37:06.629Z,100.00
2023-05-14T02:39:34.382Z,100.00
2023-05-14T02:42:02.195Z,100.00
2023-05-14T02:44:31.737Z,100.00
2023-05-14T02:47:00.988Z,100.00
2023-05-14T02:49:28.782Z,100.00
2023-05-14T02:51:56.652Z,100.00
2023-05-14T02:54:24.422Z,100.00
2023-05-14T02:56:52.133Z,100.00
2023-05-14T02:59:19.930Z,100.00
2023-05-14T03:01:48.121Z,100.00
2023-05-14T03:04:17.676Z,100.00
2023-05-14T03:06:45.479Z,100.00
2023-05-14T03:09:13.280Z,100.00
2023-05-14T03:11:41.208Z,100.00
2023-05-14T03:14:09.005Z,100.00
2023-05-14T03:16:36.754Z,100.00
2023-05-14T03:19:04.928Z,100.00
2023-05-14T03:21:34.372Z,100.00
2023-05-14T03:24:02.239Z,100.00
2023-05-14T03:26:30.046Z,100.00
2023-05-14T03:28:58.029Z,100.00
2023-05-14T03:31:25.871Z,100.00
2023-05-14T03:33:54.860Z,100.00
2023-05-14T03:36:22.650Z,100.00
2023-05-14T03:38:51.757Z,100.00
2023-05-14T03:41:20.481Z,100.00
2023-05-14T03:43:48.309Z,100.00
2023-05-14T03:46:15.989Z,100.00
2023-05-14T03:48:43.808Z,100.00
2023-05-14T03:51:11.835Z,100.00
2023-05-14T03:53:39.651Z,100.00
2023-05-14T03:56:08.878Z,100.00
2023-05-14T03:58:36.822Z,100.00
2023-05-14T04:01:04.772Z,100.00
2023-05-14T04:03:32.676Z,100.00
2023-05-14T04:06:00.813Z,100.00
2023-05-14T04:08:28.615Z,100.00
2023-05-14T04:10:56.339Z,100.00
2023-05-14T04:13:25.622Z,100.00
2023-05-14T04:15:53.731Z,100.00
2023-05-14T04:18:21.515Z,100.00
2023-05-14T04:20:49.329Z,100.00
2023-05-14T04:23:17.113Z,100.00
2023-05-14T04:25:44.852Z,100.00
2023-05-14T04:28:12.616Z,100.00
2023-05-14T04:30:41.868Z,100.00
2023-05-14T04:33:10.364Z,100.00
2023-05-14T04:35:38.594Z,100.00
2023-05-14T04:38:06.437Z,100.00
2023-05-14T04:40:34.296Z,100.00
2023-05-14T04:43:02.110Z,100.00
2023-05-14T04:45:30.865Z,100.00
2023-05-14T04:48:01.074Z,100.00
2023-05-14T04:50:29.039Z,100.00
2023-05-14T04:52:56.798Z,100.00
2023-05-14T04:55:24.639Z,100.00
2023-05-14T04:57:52.689Z,100.00
2023-05-14T05:00:22.107Z,100.00
2023-05-14T05:02:50.262Z,100.00
2023-05-14T05:05:19.531Z,100.00
2023-05-14T05:07:47.369Z,100.00
2023-05-14T05:10:15.164Z,100.00
2023-05-14T05:12:42.959Z,100.00
2023-05-14T05:15:11.094Z,100.00
2023-05-14T05:17:38.991Z,100.00
2023-05-14T05:20:09.767Z,100.00
2023-05-14T05:22:38.840Z,100.00
2023-05-14T05:25:08.160Z,100.00
2023-05-14T05:27:36.015Z,100.00
2023-05-14T05:30:04.019Z,100.00
2023-05-14T05:32:32.505Z,100.00
2023-05-14T05:35:00.250Z,100.00
2023-05-14T05:37:27.940Z,100.00
2023-05-14T05:39:57.064Z,100.00
2023-05-14T05:42:26.298Z,100.00
2023-05-14T05:44:54.038Z,100.00
2023-05-14T05:47:21.898Z,100.00
2023-05-14T05:49:50.009Z,100.00
2023-05-14T05:52:17.785Z,100.00
2023-05-14T05:54:45.656Z,100.00
2023-05-14T05:57:14.975Z,100.00
2023-05-14T05:59:42.675Z,100.00
2023-05-14T06:02:10.513Z,100.00
2023-05-14T06:04:38.338Z,100.00
2023-05-14T06:07:06.315Z,100.00
2023-05-14T06:09:34.042Z,100.00
2023-05-14T06:12:01.885Z,100.00
2023-05-14T06:14:30.990Z,100.00
2023-05-14T06:16:59.754Z,100.00
2023-05-14T06:19:27.719Z,100.00
2023-05-14T06:21:56.101Z,100.00
2023-05-14T06:24:23.846Z,100.00
2023-05-14T06:26:51.762Z,100.00
2023-05-14T06:29:19.481Z,100.00
2023-05-14T06:31:48.519Z,100.00
2023-05-14T06:34:16.399Z,100.00
2023-05-14T06:36:44.170Z,100.00
2023-05-14T06:39:12.550Z,100.00
2023-05-14T06:41:40.506Z,100.00
2023-05-14T06:44:08.400Z,100.00
2023-05-14T06:46:36.229Z,100.00
2023-05-14T06:49:05.809Z,100.00
2023-05-14T06:51:33.671Z,100.00
2023-05-14T06:54:01.588Z,100.00
2023-05-14T06:56:29.354Z,100.00
2023-05-14T06:58:57.110Z,100.00
2023-05-14T07:01:24.913Z,100.00
2023-05-14T07:03:52.740Z,100.00
2023-05-14T07:06:22.860Z,100.00
2023-05-14T07:08:50.920Z,100.00
2023-05-14T07:11:18.759Z,100.00
2023-05-14T07:13:46.505Z,100.00
2023-05-14T07:16:14.437Z,100.00
2023-05-14T07:18:42.392Z,100.00
2023-05-14T07:21:10.530Z,100.00
2023-05-14T07:23:39.736Z,100.00
2023-05-14T07:26:08.221Z,100.00
2023-05-14T07:28:36.131Z,100.00
2023-05-14T07:31:05.052Z,100.00
2023-05-14T07:33:33.135Z,100.00
2023-05-14T07:36:00.894Z,100.00
2023-05-14T07:38:28.814Z,100.00
2023-05-14T07:40:57.876Z,100.00
2023-05-14T07:43:25.709Z,100.00
2023-05-14T07:45:53.507Z,100.00
2023-05-14T07:48:21.336Z,100.00
2023-05-14T07:50:50.158Z,100.00
2023-05-14T07:53:17.962Z,100.00
2023-05-14T07:55:48.226Z,100.00
2023-05-14T07:58:17.421Z,100.00
2023-05-14T08:00:45.253Z,100.00
2023-05-14T08:03:13.241Z,100.00
2023-05-14T08:05:41.101Z,100.00
2023-05-14T08:08:08.840Z,100.00
2023-05-14T08:10:36.662Z,100.00
2023-05-14T08:13:04.491Z,100.00
2023-05-14T08:15:33.586Z,100.00
2023-05-14T08:18:03.752Z,100.00
2023-05-14T08:20:31.723Z,100.00
2023-05-14T08:22:59.425Z,100.00
2023-05-14T08:25:27.254Z,100.00
2023-05-14T08:27:55.061Z,100.00
2023-05-14T08:30:23.367Z,100.00
2023-05-14T08:32:52.872Z,100.00
2023-05-14T08:35:20.987Z,100.00
2023-05-14T08:37:50.460Z,100.00
2023-05-14T08:40:18.929Z,100.00
2023-05-14T08:42:47.513Z,100.00
2023-05-14T08:45:19.927Z,100.00
2023-05-14T08:47:50.292Z,100.00
2023-05-14T08:50:22.705Z,100.00
2023-05-14T08:52:51.511Z,100.00
2023-05-14T08:55:19.891Z,100.00
2023-05-14T08:57:47.637Z,100.00
2023-05-14T09:00:16.315Z,100.00
2023-05-14T09:02:45.912Z,100.00
2023-05-14T09:05:13.754Z,100.00
2023-05-14T09:07:43.111Z,100.00
2023-05-14T09:10:11.405Z,100.00
2023-05-14T09:12:39.090Z,100.00
2023-05-14T09:15:08.044Z,100.00
2023-05-14T09:17:35.999Z,100.00
2023-05-14T09:20:05.008Z,100.00
2023-05-14T09:22:33.299Z,100.00
2023-05-14T09:25:07.698Z,100.00
2023-05-14T09:27:36.354Z,100.00
2023-05-14T09:30:09.338Z,100.00
2023-05-14T09:32:42.555Z,100.00
2023-05-14T09:35:17.400Z,100.00
2023-05-14T09:37:47.416Z,100.00
2023-05-14T09:40:18.436Z,100.00
2023-05-14T09:42:46.381Z,100.00
2023-05-14T09:45:14.484Z,100.00
2023-05-14T09:47:42.535Z,100.00
2023-05-14T09:50:10.698Z,100.00
2023-05-14T09:52:39.231Z,100.00
2023-05-14T09:55:08.432Z,100.00
2023-05-14T09:57:37.742Z,100.00
2023-05-14T10:00:06.772Z,100.00
2023-05-14T10:02:38.812Z,100.00
2023-05-14T10:05:08.109Z,100.00
2023-05-14T10:07:40.764Z,100.00
2023-05-14T10:10:11.735Z,100.00
2023-05-14T10:12:42.097Z,100.00
2023-05-14T10:15:17.738Z,100.00
2023-05-14T10:17:50.034Z,100.00
2023-05-14T10:20:18.439Z,100.00
2023-05-14T10:22:47.376Z,100.00
2023-05-14T10:25:15.865Z,100.00
2023-05-14T10:27:45.230Z,100.00
2023-05-14T10:30:13.789Z,100.00
2023-05-14T10:32:44.230Z,100.00
2023-05-14T10:35:20.658Z,100.00
2023-05-14T10:37:48.809Z,100.00
2023-05-14T10:40:17.798Z,100.00
2023-05-14T10:42:47.969Z,100.00
2023-05-14T10:45:16.793Z,100.00
2023-05-14T10:47:47.051Z,100.00
2023-05-14T10:50:17.641Z,100.00
2023-05-14T10:52:46.790Z,100.00
2023-05-14T10:55:16.059Z,100.00
2023-05-14T10:57:47.372Z,100.00
2023-05-14T11:00:17.086Z,100.00
2023-05-14T11:02:45.824Z,100.00
2023-05-14T11:05:17.062Z,100.00
2023-05-14T11:07:45.863Z,100.00
2023-05-14T11:10:14.992Z,100.00
2023-05-14T11:12:44.065Z,95.47
2023-05-14T11:15:15.252Z,97.46
2023-05-14T11:17:44.954Z,96.77
2023-05-14T11:20:13.776Z,98.88
2023-05-14T11:22:43.090Z,100.00
2023-05-14T11:25:14.560Z,100.00
2023-05-14T11:27:43.009Z,100.00
2023-05-14T11:30:16.238Z,100.00
2023-05-14T11:32:46.374Z,100.00
2023-05-14T11:35:14.625Z,100.00
2023-05-14T11:37:42.736Z,100.00
2023-05-14T11:40:16.714Z,100.00
2023-05-14T11:42:44.804Z,100.00
2023-05-14T11:45:14.720Z,100.00
2023-05-14T11:47:44.353Z,100.00
2023-05-14T11:50:12.522Z,100.00
2023-05-14T11:52:41.881Z,100.00
2023-05-14T11:55:13.593Z,100.00
2023-05-14T11:57:41.910Z,100.00
2023-05-14T12:00:13.501Z,100.00
2023-05-14T12:02:43.285Z,100.00
2023-05-14T12:05:14.358Z,100.00
2023-05-14T12:07:45.285Z,100.00
2023-05-14T12:10:13.666Z,100.00
2023-05-14T12:12:41.429Z,100.00
2023-05-14T12:15:13.626Z,100.00
2023-05-14T12:17:43.012Z,100.00
2023-05-14T12:20:12.627Z,100.00
2023-05-14T12:22:42.624Z,100.00
2023-05-14T12:25:13.712Z,100.00
2023-05-14T12:27:41.935Z,100.00
2023-05-14T12:30:20.605Z,100.00
2023-05-14T12:32:53.511Z,100.00
2023-05-14T12:35:22.811Z,100.00
2023-05-14T12:37:51.438Z,100.00
2023-05-14T12:40:19.379Z,100.00
2023-05-14T12:42:47.117Z,100.00
2023-05-14T12:45:14.769Z,100.00
2023-05-14T12:47:42.666Z,100.00
2023-05-14T12:50:12.756Z,100.00
2023-05-14T12:52:40.547Z,100.00
2023-05-14T12:55:09.353Z,100.00
2023-05-14T12:57:39.580Z,100.00
2023-05-14T13:00:13.022Z,100.00
2023-05-14T13:02:42.790Z,100.00
2023-05-14T13:05:13.037Z,100.00
2023-05-14T13:07:40.806Z,100.00
2023-05-14T13:10:09.508Z,100.00
2023-05-14T13:12:37.234Z,100.00
2023-05-14T13:15:05.643Z,100.00
2023-05-14T13:17:33.447Z,100.00
2023-05-14T13:20:01.166Z,100.00
2023-05-14T13:22:30.830Z,100.00
2023-05-14T13:24:58.978Z,100.00
2023-05-14T13:27:26.948Z,100.00
2023-05-14T13:29:54.693Z,100.00
2023-05-14T13:32:22.467Z,100.00
2023-05-14T13:34:50.731Z,100.00
2023-05-14T13:37:18.445Z,100.00
2023-05-14T13:39:48.721Z,100.00
2023-05-14T13:42:17.272Z,100.00
2023-05-14T13:44:45.485Z,100.00
2023-05-14T13:47:13.235Z,100.00
2023-05-14T13:49:41.760Z,100.00
2023-05-14T13:52:09.503Z,100.00
2023-05-14T13:54:37.326Z,100.00
2023-05-14T13:57:06.814Z,100.00
2023-05-14T13:59:34.598Z,100.00
2023-05-14T14:02:02.451Z,100.00
2023-05-14T14:04:30.712Z,100.00
2023-05-14T14:06:59.163Z,100.00
2023-05-14T14:09:27.240Z,100.00
2023-05-14T14:11:55.069Z,100.00
2023-05-14T14:14:24.183Z,100.00
2023-05-14T14:16:51.988Z,100.00
2023-05-14T14:19:19.737Z,100.00
2023-05-14T14:21:47.712Z,100.00
2023-05-14T14:24:15.518Z,100.00
2023-05-14T14:26:43.247Z,100.00
2023-05-14T14:29:11.073Z,100.00
2023-05-14T14:31:40.269Z,100.00
2023-05-14T14:34:08.073Z,100.00
2023-05-14T14:36:35.814Z,100.00
2023-05-14T14:39:04.797Z,91.98
2023-05-14T14:41:32.540Z,87.25
2023-05-14T14:44:02.657Z,95.66
2023-05-14T14:46:30.607Z,100.00
2023-05-14T14:48:59.721Z,100.00
2023-05-14T14:51:27.710Z,100.00
2023-05-14T14:53:55.557Z,100.00
2023-05-14T14:56:23.649Z,100.00
2023-05-14T14:58:51.598Z,100.00
2023-05-14T15:01:19.591Z,100.00
2023-05-14T15:03:48.397Z,100.00
2023-05-14T15:06:17.813Z,100.00
2023-05-14T15:08:45.534Z,100.00
2023-05-14T15:11:13.267Z,100.00
2023-05-14T15:13:41.872Z,100.00
2023-05-14T15:16:09.991Z,100.00
2023-05-14T15:18:37.878Z,100.00
2023-05-14T15:21:05.960Z,100.00
2023-05-14T15:23:35.137Z,100.00
2023-05-14T15:26:02.902Z,100.00
2023-05-14T15:28:30.656Z,100.00
2023-05-14T15:30:58.881Z,100.00
2023-05-14T15:33:26.631Z,100.00
2023-05-14T15:35:54.470Z,100.00
2023-05-14T15:38:22.298Z,100.00
2023-05-14T15:40:51.507Z,100.00
2023-05-14T15:43:19.197Z,100.00
2023-05-14T15:45:47.004Z,100.00
2023-05-14T15:48:14.868Z,100.00
2023-05-14T15:50:43.816Z,100.00
2023-05-14T15:53:11.636Z,100.00
2023-05-14T15:55:39.365Z,100.00
2023-05-14T15:58:08.540Z,100.00
2023-05-14T16:00:36.406Z,100.00
2023-05-14T16:03:04.500Z,100.00
2023-05-14T16:05:32.338Z,100.00
2023-05-14T16:08:00.360Z,100.00
2023-05-14T16:10:28.163Z,100.00
2023-05-14T16:12:56.072Z,100.00
2023-05-14T16:15:25.235Z,100.00
2023-05-14T16:17:53.011Z,100.00
2023-05-14T16:20:21.351Z,100.00
2023-05-14T16:22:49.235Z,100.00
2023-05-14T16:25:18.764Z,100.00
2023-05-14T16:27:46.648Z,100.00
2023-05-14T16:30:14.716Z,100.00
2023-05-14T16:32:46.520Z,100.00
2023-05-14T16:35:14.394Z,100.00
2023-05-14T16:37:42.272Z,100.00
2023-05-14T16:40:11.844Z,100.00
2023-05-14T16:42:39.831Z,100.00
2023-05-14T16:45:08.637Z,100.00
2023-05-14T16:47:36.414Z,100.00
2023-05-14T16:50:05.908Z,100.00
2023-05-14T16:52:33.796Z,100.00
2023-05-14T16:55:01.570Z,100.00
2023-05-14T16:57:29.394Z,100.00
2023-05-14T16:59:57.180Z,100.00
2023-05-14T17:02:24.982Z,100.00
2023-05-14T17:04:54.318Z,100.00
2023-05-14T17:07:23.499Z,100.00
2023-05-14T17:09:51.383Z,100.00
2023-05-14T17:12:19.294Z,100.00
2023-05-14T17:14:47.056Z,100.00
2023-05-14T17:17:14.899Z,100.00
2023-05-14T17:19:42.651Z,100.00
2023-05-14T17:22:10.942Z,100.00
2023-05-14T17:24:40.024Z,100.00
2023-05-14T17:27:07.869Z,100.00
2023-05-14T17:29:35.725Z,100.00
2023-05-14T17:32:03.648Z,100.00
2023-05-14T17:34:31.680Z,100.00
2023-05-14T17:37:00.789Z,100.00
2023-05-14T17:39:29.079Z,100.00
2023-05-14T17:41:58.552Z,100.00
2023-05-14T17:44:26.304Z,100.00
2023-05-14T17:46:54.244Z,100.00
2023-05-14T17:49:22.103Z,100.00
2023-05-14T17:51:50.182Z,100.00
2023-05-14T17:54:18.021Z,100.00
2023-05-14T17:56:46.146Z,100.00
2023-05-14T17:59:15.315Z,100.00
2023-05-14T18:01:43.119Z,100.00
2023-05-14T18:04:11.090Z,100.00
2023-05-14T18:06:39.104Z,100.00
2023-05-14T18:09:06.824Z,100.00
2023-05-14T18:11:34.697Z,100.00
2023-05-14T18:14:02.571Z,100.00
2023-05-14T18:16:32.116Z,100.00
2023-05-14T18:19:00.785Z,100.00
2023-05-14T18:21:28.518Z,100.00
2023-05-14T18:23:56.382Z,100.00
2023-05-14T18:26:24.150Z,100.00
2023-05-14T18:28:52.535Z,100.00
2023-05-14T18:31:20.267Z,100.00
2023-05-14T18:33:49.645Z,100.00
2023-05-14T18:36:19.874Z,100.00
2023-05-14T18:38:47.569Z,100.00
2023-05-14T18:41:15.386Z,100.00
2023-05-14T18:43:43.099Z,100.00
2023-05-14T18:46:12.250Z,100.00
2023-05-14T18:48:40.063Z,100.00
2023-05-14T18:51:11.227Z,100.00
2023-05-14T18:53:39.175Z,100.00
2023-05-14T18:56:06.957Z,100.00
2023-05-14T18:58:34.941Z,100.00
2023-05-14T19:01:02.643Z,100.00
2023-05-14T19:03:30.606Z,100.00
2023-05-14T19:05:58.486Z,100.00
2023-05-14T19:08:27.664Z,100.00
2023-05-14T19:10:55.361Z,100.00
2023-05-14T19:13:23.717Z,100.00
2023-05-14T19:15:51.629Z,100.00
2023-05-14T19:18:19.589Z,100.00
2023-05-14T19:20:47.399Z,100.00
2023-05-14T19:23:15.226Z,100.00
2023-05-14T19:25:44.427Z,100.00
2023-05-14T19:28:12.131Z,100.00
2023-05-14T19:30:39.851Z,100.00
2023-05-14T19:33:07.657Z,100.00
2023-05-14T19:35:35.774Z,100.00
2023-05-14T19:38:03.648Z,100.00
2023-05-14T19:40:31.477Z,100.00
2023-05-14T19:43:00.613Z,100.00
2023-05-14T19:45:28.403Z,100.00
2023-05-14T19:47:56.309Z,100.00
2023-05-14T19:50:24.131Z,100.00
2023-05-14T19:52:51.837Z,100.00
2023-05-14T19:55:19.665Z,100.00
2023-05-14T19:57:47.399Z,100.00
2023-05-14T20:00:17.305Z,100.00
2023-05-14T20:02:45.672Z,100.00
2023-05-14T20:05:13.983Z,100.00
2023-05-14T20:07:42.591Z,100.00
2023-05-14T20:10:11.320Z,100.00
2023-05-14T20:12:39.075Z,100.00
2023-05-14T20:15:07.778Z,100.00
2023-05-14T20:17:36.914Z,100.00
2023-05-14T20:20:06.827Z,100.00
2023-05-14T20:22:34.540Z,100.00
2023-05-14T20:25:02.373Z,100.00
2023-05-14T20:27:30.159Z,100.00
2023-05-14T20:29:57.948Z,100.00
2023-05-14T20:32:26.157Z,100.00
2023-05-14T20:34:55.353Z,100.00
2023-05-14T20:37:24.112Z,100.00
2023-05-14T20:39:53.084Z,100.00
2023-05-14T20:42:20.975Z,100.00
2023-05-14T20:44:49.041Z,100.00
2023-05-14T20:47:20.430Z,100.00
2023-05-14T20:49:49.239Z,100.00
2023-05-14T20:52:18.885Z,100.00
2023-05-14T20:54:47.094Z,100.00
2023-05-14T20:57:16.390Z,100.00
2023-05-14T20:59:44.187Z,100.00
2023-05-14T21:02:12.080Z,100.00
2023-05-14T21:04:40.533Z,100.00
2023-05-14T21:07:08.855Z,100.00
2023-05-14T21:09:38.546Z,100.00
2023-05-14T21:12:07.200Z,100.00
2023-05-14T21:14:34.973Z,100.00
2023-05-14T21:17:03.526Z,100.00
2023-05-14T21:19:31.283Z,100.00
2023-05-14T21:21:59.121Z,100.00
2023-05-14T21:24:26.904Z,100.00
2023-05-14T21:26:56.134Z,100.00
2023-05-14T21:29:24.386Z,100.00
2023-05-14T21:31:52.163Z,100.00
2023-05-14T21:34:19.856Z,100.00
2023-05-14T21:36:48.130Z,100.00
2023-05-14T21:39:15.956Z,100.00
2023-05-14T21:41:43.671Z,100.00
2023-05-14T21:44:12.912Z,100.00
2023-05-14T21:46:40.812Z,100.00
2023-05-14T21:49:08.672Z,100.00
2023-05-14T21:51:36.470Z,100.00
2023-05-14T21:54:04.263Z,100.00
2023-05-14T21:56:32.274Z,100.00
2023-05-14T21:59:00.017Z,100.00
2023-05-14T22:01:29.636Z,100.00
2023-05-14T22:03:58.028Z,100.00
2023-05-14T22:06:26.066Z,100.00
2023-05-14T22:08:53.821Z,100.00
2023-05-14T22:11:22.047Z,100.00
2023-05-14T22:13:49.844Z,100.00
2023-05-14T22:16:17.661Z,100.00
2023-05-14T22:18:47.228Z,100.00
2023-05-14T22:21:15.092Z,100.00
2023-05-14T22:23:42.785Z,100.00
2023-05-14T22:26:10.707Z,100.00
2023-05-14T22:28:42.892Z,100.00
2023-05-14T22:31:10.985Z,100.00
2023-05-14T22:33:38.794Z,100.00
2023-05-14T22:36:08.563Z,100.00
2023-05-14T22:38:36.428Z,100.00
2023-05-14T22:41:04.190Z,100.00
2023-05-14T22:43:31.950Z,100.00
2023-05-14T22:45:59.988Z,100.00
2023-05-14T22:48:27.697Z,100.00
2023-05-14T22:50:55.680Z,100.00
2023-05-14T22:53:25.339Z,100.00
2023-05-14T22:55:53.293Z,100.00
2023-05-14T22:58:21.186Z,100.00
2023-05-14T23:00:49.007Z,100.00
2023-05-14T23:03:16.782Z,100.00
2023-05-14T23:05:44.510Z,100.00
2023-05-14T23:08:12.361Z,100.00
2023-05-14T23:10:41.548Z,100.00
2023-05-14T23:13:09.355Z,100.00
2023-05-14T23:15:37.102Z,100.00
2023-05-14T23:18:05.464Z,100.00
2023-05-14T23:20:33.553Z,100.00
2023-05-14T23:23:01.266Z,100.00
2023-05-14T23:25:29.028Z,100.00
2023-05-14T23:27:58.182Z,100.00
2023-05-14T23:30:26.004Z,100.00
2023-05-14T23:32:53.805Z,100.00
2023-05-14T23:35:21.575Z,100.00
2023-05-14T23:37:51.026Z,100.00
2023-05-14T23:40:19.115Z,100.00
2023-05-14T23:42:46.954Z,100.00
2023-05-14T23:45:16.536Z,100.00
2023-05-14T23:47:44.451Z,100.00
2023-05-14T23:50:12.242Z,100.00
2023-05-14T23:52:40.022Z,100.00
2023-05-14T23:55:08.397Z,100.00
2023-05-14T23:57:37.230Z,100.00
